Time;durP1;ratioP1;P1;durP2;ratioP2;P2;SDS_P1;SDS_P2;PMS_P1;PMS_P2;Temp;Humidity;BMP_temperature;BMP_pressure;BME280_temperature;BME280_humidity;BME280_pressure;Samples;Min_cycle;Max_cycle;Signal;HPM_P1;HPM_P2
2021/11/10 00:01:38;;;;;;;23.85;11.93;;;;;;;4.12;100.00;102898.69;5021622;28;20029;-73
2021/11/10 00:04:04;;;;;;;24.85;11.15;;;;;;;4.13;100.00;102900.38;5016397;28;20091;-73
2021/11/10 00:06:30;;;;;;;23.13;12.43;;;;;;;4.14;100.00;102894.09;5013264;28;20495;-73
2021/11/10 00:08:55;;;;;;;23.02;11.50;;;;;;;4.13;100.00;102890.63;5021859;28;20634;-73
2021/11/10 00:11:21;;;;;;;21.15;10.57;;;;;;;4.11;100.00;102881.13;5021096;28;20411;-73
2021/11/10 00:13:46;;;;;;;19.92;11.15;;;;;;;4.09;100.00;102891.06;5019032;28;20021;-73
2021/11/10 00:16:12;;;;;;;30.45;11.35;;;;;;;4.05;100.00;102895.00;5018766;28;20022;-73
2021/11/10 00:18:38;;;;;;;19.23;10.73;;;;;;;4.00;100.00;102895.47;5021417;28;20052;-73
2021/11/10 00:21:04;;;;;;;23.90;11.32;;;;;;;3.94;100.00;102891.59;5014694;28;20605;-73
2021/11/10 00:23:30;;;;;;;21.92;11.45;;;;;;;3.87;100.00;102887.06;5023476;28;20048;-73
2021/11/10 00:25:56;;;;;;;20.95;11.07;;;;;;;3.86;100.00;102885.38;5018686;28;20049;-73
2021/11/10 00:28:21;;;;;;;19.08;10.38;;;;;;;3.84;100.00;102888.19;5020472;28;20416;-73
2021/11/10 00:30:47;;;;;;;20.30;11.45;;;;;;;3.82;100.00;102892.81;5020552;28;20244;-74
2021/11/10 00:33:12;;;;;;;28.50;11.50;;;;;;;3.71;100.00;102890.38;5014987;28;20399;-73
2021/11/10 00:35:38;;;;;;;23.38;11.15;;;;;;;3.71;100.00;102885.06;5015673;28;20042;-73
2021/11/10 00:38:03;;;;;;;21.45;11.13;;;;;;;3.71;100.00;102876.28;5020312;28;20025;-73
2021/11/10 00:40:29;;;;;;;20.88;11.15;;;;;;;3.64;100.00;102873.41;5022163;28;20475;-73
2021/11/10 00:42:54;;;;;;;22.90;11.55;;;;;;;3.64;100.00;102884.84;5020831;28;20091;-73
2021/11/10 00:45:21;;;;;;;18.95;10.32;;;;;;;3.59;100.00;102873.88;5022118;28;20117;-74
2021/11/10 00:47:46;;;;;;;24.98;11.80;;;;;;;3.59;100.00;102873.88;5021046;28;20071;-73
2021/11/10 00:50:13;;;;;;;23.83;12.13;;;;;;;3.59;100.00;102873.88;5013608;28;20503;-73
2021/11/10 00:52:38;;;;;;;23.55;11.75;;;;;;;3.52;100.00;102870.13;5016688;28;20442;-73
2021/11/10 00:55:04;;;;;;;22.35;12.02;;;;;;;3.55;100.00;102866.34;5020176;28;20112;-73
2021/11/10 00:57:30;;;;;;;26.27;12.35;;;;;;;3.51;100.00;102857.88;5020794;28;20021;-73
2021/11/10 00:59:56;;;;;;;22.02;11.93;;;;;;;3.54;100.00;102852.25;5022074;28;20503;-73
2021/11/10 01:02:21;;;;;;;25.90;12.77;;;;;;;3.58;100.00;102858.09;5016658;28;20026;-74
2021/11/10 01:04:47;;;;;;;25.30;12.02;;;;;;;3.61;100.00;102856.00;5013037;28;20123;-74
2021/11/10 01:07:12;;;;;;;29.65;12.77;;;;;;;3.55;100.00;102845.16;5014762;28;20037;-73
2021/11/10 01:09:45;;;;;;;26.42;13.05;;;;;;;3.56;100.00;102836.22;5022303;28;20013;-73
2021/11/10 01:12:12;;;;;;;23.20;11.65;;;;;;;3.54;100.00;102840.81;5022680;28;20148;-73
2021/11/10 01:14:39;;;;;;;26.50;12.38;;;;;;;3.53;100.00;102841.81;5020322;28;20108;-73
2021/11/10 01:17:05;;;;;;;20.58;11.57;;;;;;;3.60;100.00;102842.91;5017641;28;20115;-73
2021/11/10 01:19:31;;;;;;;24.15;12.48;;;;;;;3.59;100.00;102838.56;5015556;28;20041;-74
2021/11/10 01:21:57;;;;;;;32.78;12.32;;;;;;;3.58;100.00;102829.75;5013660;28;20576;-73
2021/11/10 01:24:23;;;;;;;22.65;12.30;;;;;;;3.59;100.00;102836.75;5019303;28;20112;-73
2021/11/10 01:26:48;;;;;;;27.02;12.18;;;;;;;3.54;100.00;102831.06;5019522;28;20103;-73
2021/11/10 01:29:14;;;;;;;25.10;11.80;;;;;;;3.59;100.00;102830.59;5017330;28;20056;-73
2021/11/10 01:31:39;;;;;;;24.85;13.27;;;;;;;3.55;100.00;102829.25;5017507;28;20056;-73
2021/11/10 01:34:08;;;;;;;27.45;12.82;;;;;;;3.51;100.00;102828.72;5013194;28;20144;-73
2021/11/10 01:36:35;;;;;;;27.27;11.88;;;;;;;3.51;100.00;102822.59;5015278;28;20125;-73
2021/11/10 01:39:04;;;;;;;26.05;12.57;;;;;;;3.54;100.00;102820.47;5011936;28;20049;-73
2021/11/10 01:41:30;;;;;;;28.02;12.85;;;;;;;3.52;100.00;102821.59;5022313;28;20564;-73
2021/11/10 01:43:55;;;;;;;26.38;13.70;;;;;;;3.49;100.00;102821.91;5019518;28;20121;-73
2021/11/10 01:46:21;;;;;;;30.48;14.27;;;;;;;3.53;100.00;102829.38;5020408;28;20036;-73
2021/11/10 01:48:47;;;;;;;22.98;12.15;;;;;;;3.47;100.00;102827.34;5019604;28;20021;-74
2021/11/10 01:51:13;;;;;;;25.58;12.75;;;;;;;3.46;100.00;102832.81;5020657;28;20033;-73
2021/11/10 01:53:39;;;;;;;27.13;13.25;;;;;;;3.44;100.00;102821.53;5023365;28;20126;-74
2021/11/10 01:56:05;;;;;;;24.73;13.98;;;;;;;3.32;100.00;102812.94;5021735;28;20033;-73
2021/11/10 01:58:30;;;;;;;25.80;11.90;;;;;;;3.31;100.00;102817.41;5022416;28;20026;-74
2021/11/10 02:00:56;;;;;;;28.30;13.70;;;;;;;3.28;100.00;102823.03;5018529;28;20044;-73
2021/11/10 02:03:22;;;;;;;29.48;14.43;;;;;;;3.13;100.00;102805.97;5017590;28;20037;-74
2021/11/10 02:05:48;;;;;;;29.58;13.82;;;;;;;3.18;100.00;102814.28;5015453;28;20054;-73
2021/11/10 02:08:14;;;;;;;28.70;13.63;;;;;;;3.17;100.00;102812.63;5015674;28;20028;-73
2021/11/10 02:10:40;;;;;;;28.45;13.68;;;;;;;3.19;100.00;102808.00;5016691;28;20029;-73
2021/11/10 02:13:07;;;;;;;26.15;12.52;;;;;;;3.17;100.00;102804.69;5018327;28;20038;-73
2021/11/10 02:15:33;;;;;;;27.85;14.40;;;;;;;3.18;100.00;102805.50;5013672;28;20025;-73
2021/11/10 02:18:02;;;;;;;30.83;14.20;;;;;;;3.10;100.00;102800.97;5013163;28;20438;-73
2021/11/10 02:20:34;;;;;;;30.95;14.70;;;;;;;3.07;100.00;102790.69;5011483;28;20068;-73
2021/11/10 02:23:01;;;;;;;27.70;13.63;;;;;;;3.09;100.00;102790.53;5017249;28;20026;-73
2021/11/10 02:25:29;;;;;;;24.27;13.55;;;;;;;3.09;100.00;102791.34;5012698;28;20029;-73
2021/11/10 02:27:56;;;;;;;29.90;14.82;;;;;;;3.04;100.00;102788.31;5017298;28;20022;-73
2021/11/10 02:30:22;;;;;;;25.77;12.57;;;;;;;3.01;100.00;102775.34;5018714;28;20037;-74
2021/11/10 02:32:57;;;;;;;30.17;13.88;;;;;;;2.99;100.00;102775.50;5016716;28;20029;-73
2021/11/10 02:35:26;;;;;;;29.73;14.48;;;;;;;3.03;100.00;102778.69;5013248;28;20021;-73
2021/11/10 02:37:54;;;;;;;30.50;13.88;;;;;;;3.01;100.00;102775.34;5010260;28;20493;-74
2021/11/10 02:40:21;;;;;;;28.10;13.43;;;;;;;3.01;100.00;102772.72;5016582;28;20061;-73
2021/11/10 02:42:47;;;;;;;28.58;13.88;;;;;;;2.99;100.00;102766.72;5018354;28;20666;-74
2021/11/10 02:45:13;;;;;;;25.00;13.30;;;;;;;2.95;100.00;102768.03;5019885;28;20033;-73
2021/11/10 02:47:42;;;;;;;23.63;13.55;;;;;;;2.89;100.00;102761.50;5021732;28;20542;-73
2021/11/10 02:50:08;;;;;;;29.63;13.57;;;;;;;2.85;100.00;102757.47;5014157;28;20399;-74
2021/11/10 02:52:33;;;;;;;27.35;12.75;;;;;;;2.81;100.00;102755.28;5012459;28;20025;-73
2021/11/10 02:54:58;;;;;;;27.50;13.88;;;;;;;2.79;100.00;102758.06;5024031;28;20032;-73
2021/11/10 02:57:26;;;;;;;23.80;13.43;;;;;;;2.82;100.00;102754.28;5014057;28;20021;-74
2021/11/10 02:59:52;;;;;;;25.02;14.00;;;;;;;2.79;100.00;102757.25;5020992;28;20034;-73
2021/11/10 03:02:26;;;;;;;25.27;13.60;;;;;;;2.73;100.00;102751.56;5017907;28;20112;-73
2021/11/10 03:04:52;;;;;;;28.23;14.25;;;;;;;2.76;100.00;102746.94;5018366;28;20025;-73
2021/11/10 03:07:18;;;;;;;23.67;12.90;;;;;;;2.72;100.00;102747.25;5018486;28;20467;-74
2021/11/10 03:09:43;;;;;;;28.90;13.45;;;;;;;2.70;100.00;102743.91;5012790;28;20025;-73
2021/11/10 03:12:11;;;;;;;22.92;11.88;;;;;;;2.59;100.00;102738.81;5018629;28;20025;-73
2021/11/10 03:14:38;;;;;;;26.30;14.40;;;;;;;2.47;100.00;102747.91;5018887;28;20037;-73
2021/11/10 03:17:08;;;;;;;31.00;14.32;;;;;;;2.39;100.00;102745.19;5017559;28;20037;-73
2021/11/10 03:19:34;;;;;;;28.58;14.82;;;;;;;2.30;100.00;102753.97;5014680;28;20029;-73
2021/11/10 03:22:00;;;;;;;27.17;13.63;;;;;;;2.24;100.00;102741.31;5016741;28;20673;-73
2021/11/10 03:24:26;;;;;;;32.03;15.73;;;;;;;2.10;100.00;102742.63;5011016;28;20121;-73
2021/11/10 03:26:52;;;;;;;33.33;15.65;;;;;;;1.99;100.00;102742.81;5014325;28;20121;-73
2021/11/10 03:29:17;;;;;;;30.30;14.30;;;;;;;1.94;100.00;102739.72;5020175;28;20029;-73
2021/11/10 03:31:43;;;;;;;32.40;15.00;;;;;;;1.83;100.00;102740.75;5017641;28;20403;-73
2021/11/10 03:34:11;;;;;;;26.15;13.43;;;;;;;1.83;100.00;102743.38;5017706;28;20685;-72
2021/11/10 03:36:38;;;;;;;34.42;15.20;;;;;;;1.76;100.00;102747.56;5013960;28;20025;-72
2021/11/10 03:39:05;;;;;;;29.55;14.52;;;;;;;1.72;100.00;102746.19;5012431;28;20029;-72
2021/11/10 03:41:31;;;;;;;38.45;16.58;;;;;;;1.66;100.00;102744.94;5014286;28;20064;-72
2021/11/10 03:43:57;;;;;;;37.03;16.73;;;;;;;1.63;100.00;102749.69;5014646;28;20072;-72
2021/11/10 03:46:23;;;;;;;35.00;15.57;;;;;;;1.63;100.00;102739.94;5017597;28;20032;-72
2021/11/10 03:48:49;;;;;;;48.20;18.23;;;;;;;1.56;100.00;102735.34;5018056;28;20617;-72
2021/11/10 03:51:16;;;;;;;48.90;19.77;;;;;;;1.48;100.00;102728.97;5015415;28;20112;-72
2021/11/10 03:53:42;;;;;;;27.05;13.80;;;;;;;1.49;100.00;102730.63;5019209;28;20049;-72
2021/11/10 03:56:07;;;;;;;33.85;15.00;;;;;;;1.52;100.00;102738.25;5016084;28;20403;-72
2021/11/10 03:58:33;;;;;;;39.20;15.95;;;;;;;1.54;100.00;102734.66;5020773;28;20033;-72
2021/11/10 04:01:00;;;;;;;31.08;14.95;;;;;;;1.66;100.00;102726.44;5013914;28;21002;-72
2021/11/10 04:03:26;;;;;;;40.67;16.20;;;;;;;1.70;100.00;102732.28;5015633;28;20112;-72
2021/11/10 04:05:53;;;;;;;39.97;17.42;;;;;;;1.72;100.00;102732.97;5014367;28;20025;-72
2021/11/10 04:08:18;;;;;;;35.50;16.17;;;;;;;1.74;100.00;102731.84;5017713;28;20053;-72
2021/11/10 04:10:44;;;;;;;36.80;16.83;;;;;;;1.73;100.00;102730.19;5013634;28;20064;-72
2021/11/10 04:13:10;;;;;;;35.08;16.75;;;;;;;1.68;100.00;102723.66;5017007;28;20056;-72
2021/11/10 04:15:35;;;;;;;43.03;18.40;;;;;;;1.67;100.00;102724.63;5016368;28;20075;-72
2021/11/10 04:18:01;;;;;;;42.17;17.70;;;;;;;1.75;100.00;102722.09;5020137;28;20034;-72
2021/11/10 04:20:27;;;;;;;34.03;17.77;;;;;;;1.69;100.00;102715.59;5015855;28;20040;-72
2021/11/10 04:22:53;;;;;;;37.00;17.02;;;;;;;1.56;100.00;102717.69;5011115;28;20026;-72
2021/11/10 04:25:18;;;;;;;34.92;15.43;;;;;;;1.43;100.00;102712.66;5023427;28;20084;-72
2021/11/10 04:27:44;;;;;;;40.17;16.05;;;;;;;1.30;100.00;102721.88;5013176;28;20112;-72
2021/11/10 04:30:11;;;;;;;48.17;19.00;;;;;;;1.16;100.00;102715.19;5015983;28;20064;-72
2021/11/10 04:32:37;;;;;;;37.22;15.35;;;;;;;1.17;100.00;102706.28;5018767;28;20021;-72
2021/11/10 04:35:05;;;;;;;43.92;17.63;;;;;;;1.17;100.00;102704.50;5016723;28;20399;-72
2021/11/10 04:37:31;;;;;;;45.95;19.60;;;;;;;1.14;100.00;102709.22;5012645;28;20029;-72
2021/11/10 04:39:56;;;;;;;47.30;20.02;;;;;;;1.12;100.00;102705.88;5013684;28;20377;-72
2021/11/10 04:42:22;;;;;;;44.30;18.08;;;;;;;1.21;100.00;102705.03;5014995;28;20026;-72
2021/11/10 04:44:52;;;;;;;45.83;19.83;;;;;;;1.23;100.00;102702.25;5013280;28;20022;-72
2021/11/10 04:47:17;;;;;;;57.08;22.00;;;;;;;1.31;100.00;102711.16;5018352;28;20022;-73
2021/11/10 04:49:43;;;;;;;55.17;22.02;;;;;;;1.32;100.00;102712.00;5016815;28;20036;-72
2021/11/10 04:52:09;;;;;;;55.08;20.98;;;;;;;1.37;100.00;102707.97;5014629;28;20040;-72
2021/11/10 04:54:35;;;;;;;53.88;23.55;;;;;;;1.36;100.00;102724.78;5015475;28;20030;-72
2021/11/10 04:57:03;;;;;;;51.47;21.52;;;;;;;1.37;100.00;102725.63;5013986;28;20025;-72
2021/11/10 04:59:30;;;;;;;51.90;20.60;;;;;;;1.37;100.00;102721.16;5012701;28;20075;-73
2021/11/10 05:04:31;;;;;;;48.13;20.52;;;;;;;1.36;100.00;102713.38;5015738;28;20028;-73
2021/11/10 05:06:57;;;;;;;49.70;20.35;;;;;;;1.34;100.00;102712.69;5014729;28;20451;-73
2021/11/10 05:09:23;;;;;;;45.28;19.35;;;;;;;1.25;100.00;102711.69;5012369;28;20036;-73
2021/11/10 05:11:49;;;;;;;48.53;20.05;;;;;;;1.12;100.00;102711.16;5017697;28;20117;-74
2021/11/10 05:14:15;;;;;;;41.97;18.95;;;;;;;1.07;100.00;102711.56;5014517;28;20672;-73
2021/11/10 05:16:40;;;;;;;41.25;18.42;;;;;;;1.03;100.00;102704.88;5014072;28;20439;-73
2021/11/10 05:19:06;;;;;;;53.05;21.35;;;;;;;0.83;100.00;102706.66;5018295;28;20041;-73
2021/11/10 05:21:31;;;;;;;52.22;21.58;;;;;;;0.76;100.00;102700.28;5020981;28;20033;-73
2021/11/10 05:23:57;;;;;;;96.68;29.85;;;;;;;0.73;100.00;102697.09;5014481;28;20361;-73
2021/11/10 05:26:23;;;;;;;50.78;20.48;;;;;;;0.74;100.00;102693.47;5017988;28;20036;-73
2021/11/10 05:28:48;;;;;;;50.33;20.10;;;;;;;0.80;100.00;102693.75;5011670;28;20244;-73
2021/11/10 05:31:14;;;;;;;39.72;19.58;;;;;;;0.85;100.00;102682.78;5021949;28;20487;-73
2021/11/10 05:33:39;;;;;;;54.00;22.33;;;;;;;0.82;100.00;102681.25;5020509;28;20018;-73
2021/11/10 05:36:05;;;;;;;54.53;21.83;;;;;;;0.77;100.00;102686.13;5011075;28;21829;-73
2021/11/10 05:38:31;;;;;;;54.60;20.52;;;;;;;0.72;100.00;102677.78;5016988;28;20037;-72
2021/11/10 05:40:58;;;;;;;42.80;17.33;;;;;;;0.64;100.00;102679.41;5016536;28;20022;-72
2021/11/10 05:43:24;;;;;;;43.78;18.52;;;;;;;0.60;100.00;102684.97;5017949;28;20025;-73
2021/11/10 05:45:50;;;;;;;43.70;17.83;;;;;;;0.60;100.00;102678.84;5015851;28;20036;-72
2021/11/10 05:48:15;;;;;;;64.70;24.00;;;;;;;0.58;100.00;102672.88;5016054;28;20029;-73
2021/11/10 05:50:42;;;;;;;43.08;18.58;;;;;;;0.62;100.00;102678.72;5016337;28;20119;-72
2021/11/10 05:53:08;;;;;;;47.92;19.00;;;;;;;0.59;100.00;102675.38;5020575;28;20021;-73
2021/11/10 05:55:34;;;;;;;57.80;22.48;;;;;;;0.53;100.00;102682.97;5017656;28;20044;-72
2021/11/10 05:58:00;;;;;;;52.25;21.63;;;;;;;0.69;100.00;102685.94;5021688;28;20028;-72
2021/11/10 06:00:26;;;;;;;53.92;21.02;;;;;;;0.83;100.00;102685.56;5013217;28;20033;-72
2021/11/10 06:02:51;;;;;;;56.60;21.17;;;;;;;0.89;100.00;102697.38;5013624;28;20112;-72
2021/11/10 06:05:19;;;;;;;52.42;21.20;;;;;;;0.99;100.00;102697.38;5019802;28;20026;-72
2021/11/10 06:07:45;;;;;;;62.25;25.45;;;;;;;0.99;100.00;102697.38;5017147;28;20459;-72
2021/11/10 06:10:12;;;;;;;62.20;24.33;;;;;;;0.99;100.00;102694.75;5017234;28;20063;-73
2021/11/10 06:12:38;;;;;;;65.60;26.92;;;;;;;0.96;100.00;102702.94;5014068;28;20112;-73
2021/11/10 06:15:04;;;;;;;75.50;27.23;;;;;;;0.97;100.00;102696.69;5015611;28;20531;-73
2021/11/10 06:17:29;;;;;;;58.50;23.48;;;;;;;0.98;100.00;102695.72;5012305;28;20547;-73
2021/11/10 06:19:55;;;;;;;50.10;20.10;;;;;;;1.00;100.00;102684.06;5015384;28;20113;-73
2021/11/10 06:22:20;;;;;;;54.63;18.95;;;;;;;1.08;100.00;102699.22;5018280;28;20024;-73
2021/11/10 06:24:46;;;;;;;59.53;24.25;;;;;;;1.13;100.00;102692.53;5019384;28;20060;-73
2021/11/10 06:27:11;;;;;;;71.57;25.08;;;;;;;1.16;100.00;102699.34;5013996;28;20664;-73
2021/11/10 06:29:37;;;;;;;54.63;24.77;;;;;;;1.20;100.00;102709.50;5013330;28;20899;-73
2021/11/10 06:32:03;;;;;;;49.00;21.15;;;;;;;1.25;100.00;102706.41;5014266;28;20514;-73
2021/11/10 06:34:29;;;;;;;65.70;25.63;;;;;;;1.30;100.00;102709.50;5015613;28;20049;-73
2021/11/10 06:36:55;;;;;;;61.85;25.73;;;;;;;1.30;100.00;102703.38;5019575;28;20029;-73
2021/11/10 06:39:21;;;;;;;60.40;24.33;;;;;;;1.26;100.00;102697.56;5018273;28;20026;-73
2021/11/10 06:41:47;;;;;;;54.95;21.52;;;;;;;1.23;100.00;102699.63;5016952;28;20025;-73
2021/11/10 06:44:13;;;;;;;59.67;22.95;;;;;;;1.07;100.00;102693.06;5015657;28;20421;-73
2021/11/10 06:46:38;;;;;;;58.05;22.13;;;;;;;1.02;100.00;102700.59;5010120;28;20038;-73
2021/11/10 06:49:04;;;;;;;59.60;23.52;;;;;;;1.04;100.00;102696.00;5015307;28;20025;-73
2021/11/10 06:51:31;;;;;;;55.08;22.95;;;;;;;1.04;100.00;102698.63;5022281;28;20037;-73
2021/11/10 06:53:57;;;;;;;53.22;20.75;;;;;;;1.04;100.00;102695.16;5018458;28;20025;-73
2021/11/10 06:56:22;;;;;;;65.35;24.25;;;;;;;1.09;100.00;102690.31;5020207;28;20464;-73
2021/11/10 06:58:49;;;;;;;52.97;21.38;;;;;;;1.15;100.00;102692.41;5033213;28;20025;-73
2021/11/10 07:01:15;;;;;;;56.45;22.30;;;;;;;1.20;100.00;102687.53;5012310;28;20025;-73
2021/11/10 07:03:40;;;;;;;51.15;21.20;;;;;;;1.29;100.00;102688.50;5016855;28;20388;-73
2021/11/10 07:06:06;;;;;;;48.03;20.58;;;;;;;1.34;100.00;102687.13;5019408;28;20387;-73
2021/11/10 07:08:31;;;;;;;47.17;20.40;;;;;;;1.37;100.00;102689.47;5021151;28;20728;-73
2021/11/10 07:10:57;;;;;;;52.70;21.33;;;;;;;1.41;100.00;102688.22;5018414;28;20211;-73
2021/11/10 07:13:23;;;;;;;63.83;22.60;;;;;;;1.47;100.00;102689.47;5014786;28;20029;-73
2021/11/10 07:15:48;;;;;;;78.85;27.42;;;;;;;1.56;100.00;102693.06;5019324;28;20033;-73
2021/11/10 07:18:14;;;;;;;66.30;25.33;;;;;;;1.65;100.00;102695.72;5020835;28;20022;-73
2021/11/10 07:20:40;;;;;;;49.58;21.25;;;;;;;1.72;100.00;102693.31;5016640;28;20033;-73
2021/11/10 07:23:05;;;;;;;66.05;24.83;;;;;;;1.85;100.00;102693.84;5021713;28;20052;-73
2021/11/10 07:25:31;;;;;;;54.17;22.67;;;;;;;1.95;100.00;102680.59;5018035;28;20494;-73
2021/11/10 07:27:57;;;;;;;52.42;22.25;;;;;;;2.02;100.00;102687.81;5015175;28;20026;-73
2021/11/10 07:30:22;;;;;;;58.10;25.88;;;;;;;2.20;100.00;102687.06;5012292;28;20599;-73
2021/11/10 07:32:48;;;;;;;57.88;23.75;;;;;;;2.34;100.00;102676.00;5020958;28;20070;-73
2021/11/10 07:35:14;;;;;;;47.78;22.63;;;;;;;2.50;100.00;102676.16;5012306;28;20029;-73
2021/11/10 07:37:42;;;;;;;43.60;18.17;;;;;;;2.64;100.00;102669.56;5017242;28;20087;-73
2021/11/10 07:40:08;;;;;;;49.58;22.00;;;;;;;2.82;100.00;102664.28;5017705;28;20034;-73
2021/11/10 07:42:34;;;;;;;45.50;21.92;;;;;;;2.93;100.00;102674.66;5016347;28;20030;-73
2021/11/10 07:45:09;;;;;;;59.55;22.90;;;;;;;3.07;100.00;102671.50;5013532;28;20446;-73
2021/11/10 07:47:41;;;;;;;48.97;20.40;;;;;;;3.20;100.00;102677.22;5012732;28;20037;-73
2021/11/10 07:50:13;;;;;;;44.60;19.98;;;;;;;3.26;100.00;102676.63;5012823;28;20404;-73
2021/11/10 07:52:39;;;;;;;48.00;21.10;;;;;;;3.31;100.00;102668.22;5009581;28;20037;-73
2021/11/10 07:55:05;;;;;;;48.55;22.15;;;;;;;3.47;100.00;102678.13;5017112;28;20029;-73
2021/11/10 07:57:30;;;;;;;56.90;22.17;;;;;;;3.62;100.00;102665.97;5013748;28;20029;-73
2021/11/10 07:59:56;;;;;;;47.65;21.00;;;;;;;3.73;100.00;102676.31;5012649;28;20052;-73
2021/11/10 08:02:22;;;;;;;47.33;20.88;;;;;;;3.78;100.00;102687.28;5012351;28;20061;-73
2021/11/10 08:04:48;;;;;;;36.55;17.95;;;;;;;3.94;100.00;102682.06;5011430;28;20026;-73
2021/11/10 08:07:13;;;;;;;43.97;21.35;;;;;;;4.05;100.00;102683.63;5010853;28;20099;-73
2021/11/10 08:09:39;;;;;;;39.95;19.67;;;;;;;4.17;100.00;102686.84;5010247;28;20014;-73
2021/11/10 08:12:05;;;;;;;41.10;20.23;;;;;;;4.24;100.00;102691.34;5015063;28;20021;-72
2021/11/10 08:14:30;;;;;;;35.50;18.20;;;;;;;4.40;100.00;102681.81;5016070;28;20117;-73
2021/11/10 08:16:56;;;;;;;37.72;17.77;;;;;;;4.52;100.00;102689.31;5016284;28;20365;-73
2021/11/10 08:19:22;;;;;;;32.17;17.00;;;;;;;4.62;99.45;102693.66;5012376;28;20115;-73
2021/11/10 08:21:48;;;;;;;37.97;17.25;;;;;;;4.70;99.46;102699.84;5010780;28;20029;-73
2021/11/10 08:24:13;;;;;;;30.85;15.48;;;;;;;4.87;99.46;102710.50;5014359;28;20103;-73
2021/11/10 08:26:39;;;;;;;34.42;16.65;;;;;;;4.97;98.51;102700.53;5010529;28;20029;-73
2021/11/10 08:29:04;;;;;;;29.95;15.93;;;;;;;4.95;96.64;102698.06;5013281;28;20017;-73
2021/11/10 08:31:30;;;;;;;32.42;17.23;;;;;;;5.05;97.15;102690.78;5012134;28;20449;-73
2021/11/10 08:33:55;;;;;;;31.02;16.48;;;;;;;5.20;96.93;102684.78;5011431;28;20096;-73
2021/11/10 08:36:21;;;;;;;26.83;15.32;;;;;;;5.27;96.61;102683.16;5015700;28;20481;-73
2021/11/10 08:38:47;;;;;;;30.90;16.05;;;;;;;5.35;95.81;102685.78;5010929;28;20075;-73
2021/11/10 08:41:13;;;;;;;24.42;14.35;;;;;;;5.44;95.91;102687.47;5012747;28;20814;-73
2021/11/10 08:43:38;;;;;;;30.85;15.32;;;;;;;5.53;95.89;102675.81;5011496;28;20025;-73
2021/11/10 08:46:06;;;;;;;27.88;14.00;;;;;;;5.60;94.93;102674.16;5010212;28;20026;-73
2021/11/10 08:48:32;;;;;;;29.88;15.45;;;;;;;5.71;94.78;102673.81;5009726;28;20530;-73
2021/11/10 08:50:58;;;;;;;27.75;15.18;;;;;;;5.78;93.75;102675.81;5011657;28;20032;-73
2021/11/10 08:53:24;;;;;;;29.42;15.95;;;;;;;5.75;92.57;102685.78;5015663;28;20516;-73
2021/11/10 08:55:53;;;;;;;27.92;14.23;;;;;;;5.83;92.81;102695.56;5013385;28;20080;-73
2021/11/10 08:58:19;;;;;;;25.08;13.55;;;;;;;5.85;92.88;102696.22;5012265;28;20026;-73
2021/11/10 09:00:46;;;;;;;26.90;14.93;;;;;;;5.91;92.87;102695.56;5015559;28;20618;-73
2021/11/10 09:03:13;;;;;;;22.20;13.93;;;;;;;6.01;92.99;102695.41;5011234;28;20699;-73
2021/11/10 09:05:39;;;;;;;23.42;13.50;;;;;;;6.16;92.60;102688.38;5008948;28;20033;-73
2021/11/10 09:08:04;;;;;;;23.05;13.18;;;;;;;6.21;91.91;102696.66;5009680;28;20044;-73
2021/11/10 09:10:33;;;;;;;23.10;12.98;;;;;;;6.32;92.39;102701.63;5009999;28;20034;-73
2021/11/10 09:12:59;;;;;;;28.08;14.02;;;;;;;6.39;91.54;102703.59;5011343;28;20022;-73
2021/11/10 09:15:25;;;;;;;28.90;14.63;;;;;;;6.41;91.00;102701.59;5012663;28;20057;-73
2021/11/10 09:17:51;;;;;;;26.45;13.80;;;;;;;6.55;91.55;102692.88;5010581;28;20068;-73
2021/11/10 09:20:21;;;;;;;23.58;14.02;;;;;;;6.64;91.09;102687.34;5012404;28;20044;-73
2021/11/10 09:22:48;;;;;;;23.13;13.02;;;;;;;6.70;90.01;102677.81;5016877;28;20572;-73
2021/11/10 09:25:16;;;;;;;25.27;12.80;;;;;;;6.57;88.63;102681.03;5018572;28;20057;-73
2021/11/10 09:27:42;;;;;;;28.10;13.68;;;;;;;6.51;89.36;102675.59;5012666;28;20125;-73
2021/11/10 09:30:12;;;;;;;21.50;12.68;;;;;;;6.63;88.76;102671.50;5010399;28;20097;-73
2021/11/10 09:32:39;;;;;;;22.08;11.55;;;;;;;6.64;87.70;102666.03;5020627;28;20026;-73
2021/11/10 09:35:06;;;;;;;21.45;11.38;;;;;;;6.74;87.38;102671.13;5011066;28;20021;-73
2021/11/10 09:37:33;;;;;;;19.35;10.35;;;;;;;6.83;86.43;102669.25;5008909;28;21968;-73
2021/11/10 09:40:00;;;;;;;19.52;10.93;;;;;;;6.96;85.72;102667.63;5010892;28;20577;-74
2021/11/10 09:42:27;;;;;;;16.25;8.93;;;;;;;6.92;84.18;102663.69;5012254;28;20033;-74
2021/11/10 09:44:54;;;;;;;18.45;9.55;;;;;;;6.91;83.71;102658.53;5009963;28;20492;-74
2021/11/10 09:47:20;;;;;;;17.63;9.48;;;;;;;7.06;83.84;102669.25;5013505;28;20044;-74
2021/11/10 09:49:50;;;;;;;21.95;10.38;;;;;;;7.00;83.57;102665.44;5009791;28;20032;-74
2021/11/10 09:52:17;;;;;;;20.30;10.65;;;;;;;7.11;83.94;102661.53;5009622;28;20056;-74
2021/11/10 09:54:42;;;;;;;19.58;11.38;;;;;;;7.16;84.39;102660.00;5009669;28;20041;-74
2021/11/10 09:57:08;;;;;;;20.88;10.88;;;;;;;7.37;83.77;102662.00;5012068;28;20439;-74
2021/11/10 09:59:36;;;;;;;17.75;10.32;;;;;;;7.45;82.97;102653.94;5009674;28;20034;-74
2021/11/10 10:02:02;;;;;;;19.45;10.45;;;;;;;7.52;82.65;102654.84;5013640;28;20034;-74
2021/11/10 10:04:28;;;;;;;19.63;10.10;;;;;;;7.54;82.29;102663.53;5015006;28;20037;-74
2021/11/10 10:06:55;;;;;;;16.13;9.63;;;;;;;7.57;81.11;102655.16;5007215;28;20053;-74
2021/11/10 10:09:20;;;;;;;23.63;10.30;;;;;;;7.55;80.45;102669.69;5008495;28;20029;-74
2021/11/10 10:11:46;;;;;;;17.98;10.00;;;;;;;7.64;80.61;102662.44;5011735;28;20033;-74
2021/11/10 10:14:12;;;;;;;22.33;9.75;;;;;;;7.91;81.21;102653.81;5011041;28;20130;-74
2021/11/10 10:16:37;;;;;;;18.20;9.48;;;;;;;8.01;80.10;102651.69;5010302;28;20042;-74
2021/11/10 10:19:08;;;;;;;19.48;9.50;;;;;;;8.15;78.98;102648.19;5007572;28;20110;-74
2021/11/10 10:21:35;;;;;;;15.20;9.18;;;;;;;8.33;79.27;102636.28;5010958;28;20029;-74
2021/11/10 10:24:02;;;;;;;19.00;9.38;;;;;;;8.51;78.47;102631.38;5010924;28;20576;-74
2021/11/10 10:26:28;;;;;;;20.73;10.60;;;;;;;8.41;77.17;102622.84;5008157;28;20053;-74
2021/11/10 10:28:57;;;;;;;16.60;9.32;;;;;;;8.50;76.57;102624.38;5009429;28;20088;-74
2021/11/10 10:31:25;;;;;;;14.90;8.98;;;;;;;8.52;75.90;102627.69;5008625;28;20041;-75
2021/11/10 10:33:56;;;;;;;18.08;10.43;;;;;;;8.57;75.69;102622.59;5011311;28;21823;-74
2021/11/10 10:36:25;;;;;;;17.55;10.18;;;;;;;8.73;75.24;102622.38;5009152;28;20037;-74
2021/11/10 10:38:59;;;;;;;15.32;9.68;;;;;;;8.92;74.97;102623.59;5017210;28;20037;-75
2021/11/10 10:41:27;;;;;;;16.33;9.40;;;;;;;9.05;74.13;102622.88;5008779;28;20086;-74
2021/11/10 10:43:54;;;;;;;20.05;10.88;;;;;;;9.04;73.13;102613.22;5008814;28;20559;-74
2021/11/10 10:46:28;;;;;;;16.27;10.57;;;;;;;9.01;72.66;102613.59;5009394;28;20037;-74
2021/11/10 10:49:13;;;;;;;15.45;9.32;;;;;;;9.28;72.69;102604.75;5010300;28;20037;-74
2021/11/10 10:51:39;;;;;;;;;;;;;;;9.40;71.74;102605.06;5011119;28;20057;-75
2021/11/10 10:54:09;;;;;;;20.05;9.70;;;;;;;9.41;71.02;102600.53;5008252;28;19964;-74
2021/11/10 10:56:36;;;;;;;18.02;9.90;;;;;;;9.56;71.43;102601.28;5009270;28;20033;-74
2021/11/10 10:59:07;;;;;;;16.35;10.05;;;;;;;10.12;71.55;102590.44;5008126;28;20554;-74
2021/11/10 11:01:34;;;;;;;15.43;9.00;;;;;;;11.36;66.57;102593.56;5009988;28;20026;-74
2021/11/10 11:04:14;;;;;;;17.00;8.00;;;;;;;10.71;63.60;102579.09;5015421;28;20555;-75
2021/11/10 11:06:46;;;;;;;15.93;9.20;;;;;;;10.33;67.17;102576.94;5014686;28;20034;-74
2021/11/10 11:09:21;;;;;;;15.52;8.73;;;;;;;10.24;65.72;102575.50;5012389;28;20512;-74
2021/11/10 11:12:16;;;;;;;20.42;10.23;;;;;;;10.50;66.05;102572.88;5011454;28;20025;-74